首页
METAR-TAF:

METAR-TAF

机场 :

呼和浩特白塔国际机场

呼和浩特, 中华人民共和国

纬度: 40-49N, 经度: 111-41E, 海拔: 1065米

当前天气观测

该预报发布于51分钟前的20:00 UTC
风速4节,风向北转东北
温度 17°C
湿度 72%
气压 1010 hPa
能见度10公里或以上
1500米以下无云,无积雨云

METAR: ZBHH 192000Z 03002MPS CAVOK 17/12 Q1010 NOSIG

时间: 04:51 (20:51 UTC)

预报

该预报发布于5小时和43分钟前的15:08 UTC
预报有效从19日的 18点(UTC)到 20日的 18点(UTC)
风速8节,风向北转西北
能见度10公里或以上
1500米以下无云,无积雨云

TAF: ZBHH 191508Z 1918/2018 34004MPS CAVOK TX28/2007Z TN13/1922Z

超过4000个机场的气象观测和天气预报(METAR&TAF报告)。

可查询的气象台以黄色和红色小点在地图上表示。

将鼠标移到小点上方,可查看气象台名称。

然后点击查看天气观测和预报。

如需切换地图:点击带黑十字的绿色按钮放大地图;点击带横线的绿色按钮缩小地图;或者点击绿色箭头查看邻近地区的地图。


METAR-TAF: